Nearby METAR Reports

 

ENCN - Kristiansand/Kje, Norway
Distance from station: N 17km
Oppdatert: 18/05/2022 04:20
Overskyet
Overskyet
 Vind fra ØNØ
Vind: ØNØ 17 km/h
Temperatur: 6°C
Wind Chill: 3°C
Duggpunkt: 1°C
Fuktighet: 71%
Barometer: 1024 hPa
Clouds: Overskyet
Visibility: 10 km
Cloud details: Delvis skyet 4572 m
Overskyet 5791 m
2022/05/18 02:20 ENCN 180220Z AUTO 06009KT 9999 SCT150/// OVC190/// 06/01 Q1024
EKSN - Sindal Airport, Denmark
Distance from station: ØSØ 145km
Oppdatert: 30/12/2021 14:50
NOT Current
Mist, Hovedsaklig skyet
Mist, Hovedsaklig skyet
 Vind fra SV
Vind: SV 26 km/h
Temperatur: 7°C
Wind Chill: 3°C
Duggpunkt: 7°C
Fuktighet: 100%
Barometer: 999 hPa
Oversikt: Mist
Clouds: Hovedsaklig skyet
Visibility: 5 km
Cloud details: Delvis skyet 183 m
Hovedsaklig skyet 244 m
2021/12/30 13:50 EKSN 301350Z 23014KT 4500 BR SCT006 BKN008 07/07 Q0999
 
EKYT - Alborg, Denmark
Distance from station: SØ 153km
Oppdatert: 18/05/2022 04:20
Hovedsaklig skyet
Hovedsaklig skyet
 Vind fra SØ
Vind: SØ 19 km/h
Temperatur: 10°C
Wind Chill: 7°C
Duggpunkt: 4°C
Fuktighet: 67%
Barometer: 1025 hPa
Clouds: Hovedsaklig skyet
Visibility: 10 km
Cloud details: Hovedsaklig skyet 4572 m
Hovedsaklig skyet 6096 m
Hovedsaklig skyet 7010 m
2022/05/18 02:20 EKYT 180220Z AUTO 14010KT 9999 BKN150/// BKN200/// BKN230/// 10/04 Q1025
ENSN - Skien/Geiterygge, Norway
Distance from station: NØ 153km
Oppdatert: 09/11/2015 09:50
NOT Current
Klart
Klart
 Vind fra SSV
Vind: SSV 19 km/h, Vindkast: 41 km/h
Temperatur: 7°C
Wind Chill: 4°C
Duggpunkt: 3°C
Fuktighet: 76%
Barometer: 1000 hPa
Oversikt: Klart
Visibility: greater than 10 km
2015/11/09 08:50 ENSN 090850Z 20010G22KT 150V240 CAVOK 07/03 Q1000
 
ENZV - Stavanger/Sola(A, Norway
Distance from station: NV 166km
Oppdatert: 18/05/2022 04:20
Klart
Klart
 Vind fra SØ
Vind: SØ 19 km/h
Temperatur: 14°C
Duggpunkt: 3°C
Fuktighet: 48%
Barometer: 1019 hPa
Oversikt: Klart
Visibility: greater than 10 km
2022/05/18 02:20 ENZV 180220Z 13010KT CAVOK 14/03 Q1019
ENNO - Notodden, Norway
Distance from station: NNØ 182km
Oppdatert: 16/05/2022 18:50
NOT Current
Klart
Klart
 Vind fra ØSØ
Vind: ØSØ 17 km/h
Temperatur: 19°C
Duggpunkt: 3°C
Fuktighet: 35%
Barometer: 1020 hPa
Oversikt: Klart
Visibility: greater than 10 km
2022/05/16 16:50 ENNO 161650Z 12009KT CAVOK 19/03 Q1020
 
ENTO - Torp (civ/Nor-Af, Norway
Distance from station: NØ 183km
Oppdatert: 18/05/2022 04:20
Delvis skyet
Delvis skyet
 Vind fra varies
Vind: varies 2 km/h
Temperatur: 8°C
Duggpunkt: -3°C
Fuktighet: 46%
Barometer: 1025 hPa
Clouds: Delvis skyet
Visibility: 10 km
Cloud details: Delvis skyet 5486 m
2022/05/18 02:20 ENTO 180220Z AUTO VRB01KT 9999 SCT180/// 08/M03 Q1025
EKKA - Karup (dan-Afb), Denmark
Distance from station: SSØ 209km
Oppdatert: 18/05/2022 04:20
Hovedsaklig skyet
Hovedsaklig skyet
 Vind fra SØ
Vind: SØ 19 km/h
Temperatur: 11°C
Duggpunkt: 3°C
Fuktighet: 58%
Barometer: 1023 hPa
Clouds: Hovedsaklig skyet
Visibility: 10 km
Cloud details: Hovedsaklig skyet 4877 m
Hovedsaklig skyet 5791 m
2022/05/18 02:20 EKKA 180220Z AUTO 13010KT 9999 BKN160/// BKN190/// 11/03 Q1023
 
ENHD - Haugesund/Karmoy, Norway
Distance from station: NV 216km
Oppdatert: 18/05/2022 04:20
Delvis skyet
Delvis skyet
 Vind fra ØSØ
Vind: ØSØ 31 km/h
Temperatur: 14°C
Duggpunkt: 2°C
Fuktighet: 44%
Barometer: 1019 hPa
Clouds: Delvis skyet
Visibility: 10 km
Cloud details: Delvis skyet 4572 m
2022/05/18 02:20 ENHD 180220Z AUTO 12017KT 9999 SCT150/// 14/02 Q1019
ENRY - Rygge (nor-Afb), Norway
Distance from station: NØ 216km
Oppdatert: 18/05/2022 04:20
Klart
Klart
 Vind fra ØSØ
Vind: ØSØ 6 km/h
Temperatur: 6°C
Duggpunkt: 1°C
Fuktighet: 71%
Barometer: 1025 hPa
Clouds: Klart
Visibility: 10 km
2022/05/18 02:20 ENRY 180220Z AUTO 11003KT 9999NDV NCD 06/01 Q1025
 
ESGP - Goteborg/Save (a, Sweden
Distance from station: Ø 230km
Oppdatert: 18/05/2022 04:20
Klart
Klart
 Vind fra S
Vind: S 20 km/h
Temperatur: 10°C
Wind Chill: 7°C
Duggpunkt: 3°C
Fuktighet: 62%
Barometer: 1026 hPa
Clouds: Klart
Visibility: 10 km
2022/05/18 02:20 ESGP 180220Z AUTO 18011KT 9999 NCD 10/03 Q1026
EKVJ - Stauning Airport, Denmark
Distance from station: S 233km
Oppdatert: 17/05/2022 15:50
NOT Current
Klart
Klart
 Vind fra ØSØ
Vind: ØSØ 28 km/h
Temperatur: 21°C
Duggpunkt: 13°C
Fuktighet: 60%
Barometer: 1021 hPa
Oversikt: Klart
Visibility: greater than 10 km
2022/05/17 13:50 EKVJ 171350Z 11015KT CAVOK 21/13 Q1021
 
ENSO - Stord/Soerstokke, Norway
Distance from station: NV 246km
Oppdatert: 17/05/2022 14:20
NOT Current
Klart
Klart
 Vind fra S
Vind: S 9 km/h
Temperatur: 21°C
Duggpunkt: 4°C
Fuktighet: 33%
Barometer: 1023 hPa
Oversikt: Klart
Visibility: greater than 10 km
2022/05/17 12:20 ENSO 171220Z 19005KT CAVOK 21/04 Q1023
EKAH - Tirstrup (civ/Mi, Denmark
Distance from station: SØ 252km
Oppdatert: 18/05/2022 04:20
Hovedsaklig skyet
Hovedsaklig skyet
 Vind fra SØ
Vind: SØ 15 km/h
Temperatur: 11°C
Duggpunkt: 4°C
Fuktighet: 62%
Barometer: 1026 hPa
Clouds: Hovedsaklig skyet
Visibility: 10 km
Cloud details: Few Clouds 3962 m
Hovedsaklig skyet 5791 m
2022/05/18 02:20 EKAH 180220Z AUTO 14008KT 110V170 9999 FEW130/// BKN190/// 11/04 Q1026
 
ESGT - Trollhattan (pvt, Sweden
Distance from station: Ø 255km
Oppdatert: 18/05/2022 04:20
Klart
Klart
 Vind fra S
Vind: S 11 km/h
Temperatur: 3°C
Wind Chill: 0°C
Duggpunkt: -1°C
Fuktighet: 75%
Barometer: 1026 hPa
Clouds: Klart
Visibility: 10 km
2022/05/18 02:20 ESGT 180220Z AUTO 17006KT 9999 NCD 03/M01 Q1026
ESGG - Goteborg/Landvet, Sweden
Distance from station: Ø 257km
Oppdatert: 18/05/2022 04:20
Klart
Klart
 Vind fra SSØ
Vind: SSØ 11 km/h
Temperatur: 6°C
Wind Chill: 4°C
Duggpunkt: 1°C
Fuktighet: 71%
Barometer: 1026 hPa
Oversikt: Klart
Visibility: greater than 10 km
2022/05/18 02:20 ESGG 180220Z 16006KT CAVOK 06/01 Q1026
 
EKBI - Billund Airport, Denmark
Distance from station: SSØ 269km
Oppdatert: 18/05/2022 04:20
Hovedsaklig skyet
Hovedsaklig skyet
 Vind fra ØSØ
Vind: ØSØ 19 km/h
Temperatur: 10°C
Wind Chill: 7°C
Duggpunkt: 3°C
Fuktighet: 62%
Barometer: 1023 hPa
Clouds: Hovedsaklig skyet
Visibility: 10 km
Cloud details: Hovedsaklig skyet 5182 m
2022/05/18 02:20 EKBI 180220Z AUTO 11010KT 9999 BKN170/// 10/03 Q1023
EKHN - Horns Rev B Heli, Denmark
Distance from station: S 274km
Oppdatert: 09/08/2016 14:20
NOT Current
Few Clouds
Few Clouds
 Vind fra VNV
Vind: VNV 50 km/h, Vindkast: 72 km/h
Temperatur: 14°C
Duggpunkt: 10°C
Fuktighet: 77%
Barometer: 1018 hPa
Clouds: Few Clouds
Visibility: 10 km
Cloud details: Few Clouds 1158 m
Few Clouds 2438 m
2016/08/09 12:20 EKHN 091220Z AUTO 29027G39KT 270V340 9999NDV FEW038/// FEW080/// 14/10 Q1018
 
ESIB - Satenas (swe-Afb, Sweden
Distance from station: Ø 277km
Oppdatert: 18/05/2022 04:20
Klart
Klart
 Vind fra SSØ
Vind: SSØ 11 km/h
Temperatur: 3°C
Wind Chill: 0°C
Duggpunkt: -1°C
Fuktighet: 75%
Barometer: 1026 hPa
Clouds: Klart
Visibility: 10 km
2022/05/18 02:20 ESIB 180220Z AUTO 16006KT 9999 NCD 03/M01 Q1026
EKHR - Horns Rev B Heli, Denmark
Distance from station: S 282km
Oppdatert: 04/10/2016 06:20
NOT Current
Klart
Klart
 Vind fra Ø
Vind: Ø 4 km/h
Temperatur: 11°C
Duggpunkt: -49°C
Fuktighet: 0%
Barometer: 1038 hPa
Clouds: Klart
Visibility: 10 km
2016/10/04 04:20 EKHR 040420Z AUTO 08002KT 9999NDV NCD 11/M49 Q1038